createdAt,value
2017-07-16T00:01:56.086Z,7.40
2017-07-16T00:04:23.577Z,7.43
2017-07-16T00:06:51.062Z,8.10
2017-07-16T00:09:18.701Z,8.33
2017-07-16T00:11:46.193Z,7.17
2017-07-16T00:14:13.677Z,7.53
2017-07-16T00:16:42.057Z,7.07
2017-07-16T00:19:09.604Z,7.93
2017-07-16T00:21:37.085Z,6.73
2017-07-16T00:24:04.797Z,7.70
2017-07-16T00:26:32.337Z,12.03
2017-07-16T00:28:59.882Z,7.90
2017-07-16T00:31:27.630Z,8.00
2017-07-16T00:33:55.121Z,7.40
2017-07-16T00:36:22.608Z,6.57
2017-07-16T00:38:50.357Z,8.03
2017-07-16T00:41:17.906Z,8.10
2017-07-16T00:43:45.453Z,7.07
2017-07-16T00:46:12.990Z,7.70
2017-07-16T00:48:40.544Z,8.20
2017-07-16T00:51:08.082Z,7.43
2017-07-16T00:53:35.565Z,13.90
2017-07-16T00:56:03.060Z,9.80
2017-07-16T00:58:30.811Z,6.97
2017-07-16T01:00:58.305Z,9.53
2017-07-16T01:03:25.901Z,7.20
2017-07-16T01:05:53.410Z,9.07
2017-07-16T01:08:21.667Z,7.13
2017-07-16T01:10:49.957Z,8.13
2017-07-16T01:13:17.493Z,7.63
2017-07-16T01:15:45.769Z,7.13
2017-07-16T01:18:13.314Z,7.13
2017-07-16T01:20:40.849Z,7.43
2017-07-16T01:23:08.391Z,7.80
2017-07-16T01:25:35.941Z,10.07
2017-07-16T01:28:03.432Z,6.70
2017-07-16T01:30:30.926Z,11.87
2017-07-16T01:32:58.465Z,7.17
2017-07-16T01:35:26.009Z,7.77
2017-07-16T01:37:53.502Z,12.87
2017-07-16T01:40:21.102Z,10.57
2017-07-16T01:42:48.679Z,7.33
2017-07-16T01:45:16.166Z,8.07
2017-07-16T01:47:44.649Z,9.17
2017-07-16T01:50:12.134Z,9.10
2017-07-16T01:52:39.646Z,8.33
2017-07-16T01:55:07.181Z,8.50
2017-07-16T01:57:34.717Z,9.73
2017-07-16T02:00:02.202Z,8.30
2017-07-16T02:02:29.805Z,6.80
2017-07-16T02:04:57.358Z,8.10
2017-07-16T02:07:24.846Z,7.50
2017-07-16T02:09:52.369Z,10.97
2017-07-16T02:12:19.861Z,9.83
2017-07-16T02:14:48.141Z,7.97
2017-07-16T02:17:15.675Z,7.80
2017-07-16T02:19:43.234Z,7.90
2017-07-16T02:22:10.769Z,7.07
2017-07-16T02:24:38.314Z,7.20
2017-07-16T02:27:05.798Z,9.13
2017-07-16T02:29:33.276Z,7.43
2017-07-16T02:32:01.560Z,7.30
2017-07-16T02:34:29.041Z,9.53
2017-07-16T02:36:57.293Z,8.53
2017-07-16T02:39:25.583Z,7.17
2017-07-16T02:41:53.064Z,8.23
2017-07-16T02:44:20.545Z,6.67
2017-07-16T02:46:48.989Z,8.03
2017-07-16T02:49:16.574Z,8.13
2017-07-16T02:51:44.117Z,6.73
2017-07-16T02:54:11.771Z,7.33
2017-07-16T02:56:39.314Z,8.10
2017-07-16T02:59:06.850Z,11.97
2017-07-16T03:01:34.366Z,8.33
2017-07-16T03:04:02.649Z,8.57
2017-07-16T03:06:30.133Z,10.97
2017-07-16T03:08:57.741Z,8.83
2017-07-16T03:11:25.225Z,14.23
2017-07-16T03:13:52.713Z,10.30
2017-07-16T03:16:20.217Z,8.60
2017-07-16T03:18:47.709Z,8.97
2017-07-16T03:21:15.201Z,12.50
2017-07-16T03:23:42.712Z,10.80
2017-07-16T03:26:10.197Z,12.17
2017-07-16T03:28:37.691Z,9.57
2017-07-16T03:31:05.426Z,9.33
2017-07-16T03:33:32.972Z,9.43
2017-07-16T03:36:00.526Z,16.73
2017-07-16T03:38:28.057Z,10.07
2017-07-16T03:40:55.607Z,12.20
2017-07-16T03:43:23.145Z,11.80
2017-07-16T03:45:50.669Z,13.50
2017-07-16T03:48:18.921Z,9.70
2017-07-16T03:50:47.210Z,10.57
2017-07-16T03:53:14.757Z,9.03
2017-07-16T03:55:42.285Z,9.63
2017-07-16T03:58:09.821Z,10.40
2017-07-16T04:00:37.304Z,12.87
2017-07-16T04:03:04.794Z,9.57
2017-07-16T04:05:33.074Z,9.50
2017-07-16T04:08:00.589Z,9.40
2017-07-16T04:10:28.879Z,11.70
2017-07-16T04:12:56.386Z,9.90
2017-07-16T04:15:23.937Z,17.93
2017-07-16T04:17:51.685Z,10.53
2017-07-16T04:20:19.173Z,13.10
2017-07-16T04:22:46.673Z,15.17
2017-07-16T04:25:14.204Z,14.80
2017-07-16T04:27:41.774Z,12.30
2017-07-16T04:30:09.266Z,12.13
2017-07-16T04:32:36.848Z,20.53
2017-07-16T04:35:04.392Z,12.80
2017-07-16T04:37:32.145Z,10.70
2017-07-16T04:39:59.634Z,13.23
2017-07-16T04:42:27.171Z,10.20
2017-07-16T04:44:54.698Z,14.03
2017-07-16T04:47:22.258Z,11.80
2017-07-16T04:49:49.757Z,11.13
2017-07-16T04:52:17.342Z,9.40
2017-07-16T04:54:44.884Z,10.13
2017-07-16T04:57:12.429Z,13.03
2017-07-16T04:59:39.955Z,9.47
2017-07-16T05:02:08.206Z,10.00
2017-07-16T05:04:36.592Z,10.20
2017-07-16T05:07:04.141Z,10.87
2017-07-16T05:09:31.630Z,10.80
2017-07-16T05:11:59.226Z,11.87
2017-07-16T05:14:26.710Z,9.33
2017-07-16T05:16:54.318Z,12.70
2017-07-16T05:19:21.857Z,8.03
2017-07-16T05:21:49.341Z,9.90
2017-07-16T05:24:16.942Z,10.30
2017-07-16T05:26:44.424Z,9.03
2017-07-16T05:29:11.940Z,9.60
2017-07-16T05:31:39.473Z,8.80
2017-07-16T05:34:06.959Z,9.40
2017-07-16T05:36:34.456Z,8.70
2017-07-16T05:39:01.969Z,7.93
2017-07-16T05:41:29.458Z,9.50
2017-07-16T05:43:56.957Z,8.20
2017-07-16T05:46:24.503Z,11.20
2017-07-16T05:48:52.249Z,14.97
2017-07-16T05:51:19.789Z,10.23
2017-07-16T05:53:47.268Z,7.23
2017-07-16T05:56:14.877Z,13.80
2017-07-16T05:58:42.365Z,15.03
2017-07-16T06:01:09.845Z,7.87
2017-07-16T06:03:38.221Z,8.60
2017-07-16T06:06:05.705Z,10.17
2017-07-16T06:08:33.230Z,8.73
2017-07-16T06:11:00.956Z,6.60
2017-07-16T06:13:28.437Z,11.07
2017-07-16T06:15:55.941Z,10.53
2017-07-16T06:18:23.489Z,14.67
2017-07-16T06:20:51.021Z,12.60
2017-07-16T06:23:18.569Z,11.37
2017-07-16T06:25:46.056Z,12.73
2017-07-16T06:28:13.663Z,11.33
2017-07-16T06:30:41.166Z,10.97
2017-07-16T06:33:08.700Z,12.60
2017-07-16T06:35:36.285Z,9.30
2017-07-16T06:38:03.796Z,8.57
2017-07-16T06:40:31.429Z,9.73
2017-07-16T06:42:58.969Z,10.80
2017-07-16T06:45:26.465Z,8.10
2017-07-16T06:47:54.062Z,8.53
2017-07-16T06:50:21.605Z,13.00
2017-07-16T06:52:49.145Z,17.43
2017-07-16T06:55:16.686Z,12.97
2017-07-16T06:57:44.176Z,15.03
2017-07-16T07:00:11.693Z,16.60
2017-07-16T07:02:39.185Z,21.40
2017-07-16T07:05:07.579Z,22.17
2017-07-16T07:07:35.125Z,27.60
2017-07-16T07:10:02.764Z,18.80
2017-07-16T07:12:30.257Z,16.87
2017-07-16T07:14:57.772Z,25.10
2017-07-16T07:17:25.297Z,26.77
2017-07-16T07:19:52.785Z,27.50
2017-07-16T07:22:20.321Z,33.43
2017-07-16T07:24:47.826Z,31.33
2017-07-16T07:27:15.317Z,31.73
2017-07-16T07:29:42.913Z,26.00
2017-07-16T07:32:10.434Z,27.13
2017-07-16T07:34:38.696Z,33.63
2017-07-16T07:37:06.950Z,28.30
2017-07-16T07:39:34.483Z,31.27
2017-07-16T07:42:01.977Z,45.17
2017-07-16T07:44:29.573Z,29.90
2017-07-16T07:46:57.082Z,34.47
2017-07-16T07:49:25.366Z,37.63
2017-07-16T07:51:52.857Z,41.90
2017-07-16T07:54:20.345Z,29.33
2017-07-16T07:56:48.024Z,36.97
2017-07-16T07:59:15.622Z,39.07
2017-07-16T08:01:43.887Z,42.03
2017-07-16T08:04:12.157Z,43.77
2017-07-16T08:06:40.424Z,32.23
2017-07-16T08:09:07.970Z,37.77
2017-07-16T08:11:35.529Z,32.53
2017-07-16T08:14:03.165Z,38.30
2017-07-16T08:16:30.705Z,29.70
2017-07-16T08:18:58.192Z,31.23
2017-07-16T08:21:25.685Z,32.00
2017-07-16T08:23:53.237Z,37.20
2017-07-16T08:26:20.725Z,31.20
2017-07-16T08:28:48.221Z,28.90
2017-07-16T08:31:15.732Z,31.00
2017-07-16T08:33:43.990Z,28.77
2017-07-16T08:36:11.564Z,32.03
2017-07-16T08:38:39.285Z,30.83
2017-07-16T08:41:06.828Z,29.37
2017-07-16T08:43:34.373Z,29.17
2017-07-16T08:46:01.921Z,28.83
2017-07-16T08:48:29.410Z,28.40
2017-07-16T08:50:57.005Z,30.10
2017-07-16T08:53:24.494Z,26.90
2017-07-16T08:55:51.977Z,24.63
2017-07-16T08:58:19.537Z,28.30
2017-07-16T09:00:47.100Z,28.83
2017-07-16T09:03:14.589Z,26.33
2017-07-16T09:05:42.879Z,28.90
2017-07-16T09:08:10.369Z,31.30
2017-07-16T09:10:37.966Z,25.27
2017-07-16T09:13:05.665Z,24.43
2017-07-16T09:15:33.161Z,31.17
2017-07-16T09:18:00.704Z,31.73
2017-07-16T09:20:28.201Z,29.90
2017-07-16T09:22:55.788Z,33.23
2017-07-16T09:25:23.293Z,34.40
2017-07-16T09:27:50.785Z,32.83
2017-07-16T09:30:18.278Z,31.77
2017-07-16T09:32:45.858Z,32.20
2017-07-16T09:35:13.401Z,29.10
2017-07-16T09:37:40.976Z,28.43
2017-07-16T09:40:08.565Z,31.60
2017-07-16T09:42:36.113Z,21.87
2017-07-16T09:45:03.763Z,25.67
2017-07-16T09:47:31.301Z,25.47
2017-07-16T09:49:58.797Z,31.80
2017-07-16T09:52:26.393Z,23.60
2017-07-16T09:54:53.930Z,23.30
2017-07-16T09:57:21.473Z,23.73
2017-07-16T09:59:49.001Z,21.83
2017-07-16T10:02:17.280Z,29.47
2017-07-16T10:04:44.822Z,18.43
2017-07-16T10:07:12.345Z,22.20
2017-07-16T10:09:40.615Z,24.70
2017-07-16T10:12:08.118Z,20.90
2017-07-16T10:14:36.628Z,25.03
2017-07-16T10:17:04.116Z,24.03
2017-07-16T10:19:31.621Z,22.93
2017-07-16T10:21:59.161Z,31.00
2017-07-16T10:24:26.714Z,24.97
2017-07-16T10:26:54.249Z,23.47
2017-07-16T10:29:21.792Z,24.80
2017-07-16T10:31:49.278Z,20.00
2017-07-16T10:34:16.776Z,22.27
2017-07-16T10:36:44.325Z,25.17
2017-07-16T10:39:11.880Z,21.70
2017-07-16T10:41:39.429Z,42.63
2017-07-16T10:44:06.974Z,18.47
2017-07-16T10:46:34.518Z,20.77
2017-07-16T10:49:02.156Z,25.23
2017-07-16T10:51:29.649Z,25.93
2017-07-16T10:53:57.137Z,26.80
2017-07-16T10:56:24.685Z,22.93
2017-07-16T10:58:52.173Z,27.20
2017-07-16T11:01:19.670Z,26.03
2017-07-16T11:03:47.213Z,23.37
2017-07-16T11:06:14.706Z,33.40
2017-07-16T11:08:42.193Z,29.27
2017-07-16T11:11:09.742Z,21.40
2017-07-16T11:13:37.283Z,25.00
2017-07-16T11:16:04.981Z,22.07
2017-07-16T11:18:32.470Z,27.80
2017-07-16T11:21:00.022Z,25.67
2017-07-16T11:23:27.574Z,23.93
2017-07-16T11:25:55.110Z,22.50
2017-07-16T11:28:22.607Z,27.37
2017-07-16T11:30:50.397Z,25.70
2017-07-16T11:33:17.884Z,26.47
2017-07-16T11:35:45.373Z,32.13
2017-07-16T11:38:13.140Z,22.80
2017-07-16T11:40:40.677Z,24.63
2017-07-16T11:43:08.214Z,24.67
2017-07-16T11:45:35.739Z,27.50
2017-07-16T11:48:03.304Z,30.23
2017-07-16T11:50:30.800Z,27.23
2017-07-16T11:52:58.377Z,30.90
2017-07-16T11:55:25.925Z,29.10
2017-07-16T11:57:53.469Z,29.27
2017-07-16T12:00:21.006Z,26.73
2017-07-16T12:02:48.504Z,34.00
2017-07-16T12:05:16.005Z,30.00
2017-07-16T12:07:43.549Z,28.93
2017-07-16T12:10:11.046Z,27.40
2017-07-16T12:12:38.537Z,28.87
2017-07-16T12:15:06.073Z,24.40
2017-07-16T12:17:33.571Z,29.37
2017-07-16T12:20:01.063Z,25.67
2017-07-16T12:22:28.589Z,27.10
2017-07-16T12:24:56.146Z,22.70
2017-07-16T12:27:23.640Z,24.20
2017-07-16T12:29:51.236Z,25.30
2017-07-16T12:32:18.774Z,22.33
2017-07-16T12:34:46.318Z,22.70
2017-07-16T12:37:13.812Z,25.57
2017-07-16T12:39:41.334Z,22.63
2017-07-16T12:42:08.872Z,27.13
2017-07-16T12:44:36.422Z,26.50
2017-07-16T12:47:03.910Z,22.83
2017-07-16T12:49:31.505Z,24.93
2017-07-16T12:51:59.053Z,26.17
2017-07-16T12:54:26.594Z,22.30
2017-07-16T12:56:54.140Z,22.20
2017-07-16T12:59:21.633Z,24.27
2017-07-16T13:01:49.126Z,21.40
2017-07-16T13:04:16.644Z,20.50
2017-07-16T13:06:44.926Z,21.47
2017-07-16T13:09:12.490Z,22.90
2017-07-16T13:11:39.997Z,20.10
2017-07-16T13:14:07.495Z,19.77
2017-07-16T13:16:34.982Z,24.67
2017-07-16T13:19:02.540Z,22.33
2017-07-16T13:21:30.086Z,22.83
2017-07-16T13:23:57.629Z,24.90
2017-07-16T13:26:25.180Z,21.90
2017-07-16T13:28:52.714Z,25.70
2017-07-16T13:31:20.206Z,23.87
2017-07-16T13:33:47.802Z,24.00
2017-07-16T13:36:15.345Z,23.20
2017-07-16T13:38:42.861Z,23.20
2017-07-16T13:41:10.376Z,24.20
2017-07-16T13:43:38.629Z,24.07
2017-07-16T13:46:06.200Z,26.90
2017-07-16T13:48:33.690Z,24.00
2017-07-16T13:51:01.188Z,25.27
2017-07-16T13:53:28.718Z,23.20
2017-07-16T13:55:56.209Z,23.70
2017-07-16T13:58:23.707Z,25.07
2017-07-16T14:00:51.465Z,26.27
2017-07-16T14:03:19.009Z,25.93
2017-07-16T14:05:46.555Z,24.27
2017-07-16T14:08:14.107Z,28.00
2017-07-16T14:10:41.639Z,24.37
2017-07-16T14:13:09.181Z,26.13
2017-07-16T14:15:36.726Z,24.00
2017-07-16T14:18:04.264Z,21.73
2017-07-16T14:20:31.810Z,22.17
2017-07-16T14:22:59.333Z,22.00
2017-07-16T14:25:27.613Z,23.93
2017-07-16T14:27:55.166Z,23.97
2017-07-16T14:30:22.701Z,24.13
2017-07-16T14:32:50.253Z,23.07
2017-07-16T14:35:17.786Z,21.17
2017-07-16T14:37:45.537Z,24.07
2017-07-16T14:40:13.825Z,22.43
2017-07-16T14:42:41.385Z,22.07
2017-07-16T14:45:08.915Z,26.57
2017-07-16T14:47:36.456Z,23.13
2017-07-16T14:50:04.004Z,21.50
2017-07-16T14:52:31.540Z,20.37
2017-07-16T14:54:59.089Z,20.20
2017-07-16T14:57:26.577Z,20.87
2017-07-16T14:59:54.175Z,21.40
2017-07-16T15:02:21.665Z,24.20
2017-07-16T15:04:49.265Z,22.40
2017-07-16T15:07:16.771Z,21.70
2017-07-16T15:09:45.064Z,22.30
2017-07-16T15:12:12.611Z,22.50
2017-07-16T15:14:40.150Z,22.03
2017-07-16T15:17:07.694Z,19.40
2017-07-16T15:19:35.237Z,22.20
2017-07-16T15:22:02.794Z,19.23
2017-07-16T15:24:30.281Z,18.53
2017-07-16T15:26:57.885Z,18.27
2017-07-16T15:29:25.418Z,19.03
2017-07-16T15:31:52.911Z,18.80
2017-07-16T15:34:20.497Z,15.87
2017-07-16T15:36:48.049Z,13.80
2017-07-16T15:39:15.552Z,13.80
2017-07-16T15:41:43.838Z,15.80
2017-07-16T15:44:11.376Z,14.80
2017-07-16T15:46:38.877Z,13.60
2017-07-16T15:49:06.369Z,16.30
2017-07-16T15:51:34.005Z,14.00
2017-07-16T15:54:01.504Z,13.70
2017-07-16T15:56:28.989Z,17.07
2017-07-16T15:58:56.546Z,17.70
2017-07-16T16:01:24.033Z,15.80
2017-07-16T16:03:51.629Z,16.30
2017-07-16T16:06:19.141Z,14.87
2017-07-16T16:08:47.459Z,14.30
2017-07-16T16:11:14.945Z,16.20
2017-07-16T16:13:43.326Z,15.63
2017-07-16T16:16:10.881Z,19.13
2017-07-16T16:18:38.433Z,17.57
2017-07-16T16:21:05.969Z,18.13
2017-07-16T16:23:33.729Z,17.70
2017-07-16T16:26:01.269Z,17.23
2017-07-16T16:28:28.804Z,21.50
2017-07-16T16:30:56.303Z,22.90
2017-07-16T16:33:23.894Z,16.00
2017-07-16T16:35:51.432Z,17.80
2017-07-16T16:38:19.709Z,18.80
2017-07-16T16:40:47.236Z,17.03
2017-07-16T16:43:14.737Z,21.73
2017-07-16T16:45:42.226Z,20.60
2017-07-16T16:48:09.782Z,21.40
2017-07-16T16:50:37.277Z,19.97
2017-07-16T16:53:04.875Z,23.47
2017-07-16T16:55:32.419Z,23.13
2017-07-16T16:57:59.954Z,21.33
2017-07-16T17:00:27.477Z,21.80
2017-07-16T17:02:55.729Z,21.60
2017-07-16T17:05:24.021Z,22.77
2017-07-16T17:07:51.548Z,21.93
2017-07-16T17:10:19.801Z,24.03
2017-07-16T17:12:48.085Z,29.40
2017-07-16T17:15:15.627Z,24.57
2017-07-16T17:17:43.165Z,23.00
2017-07-16T17:20:10.713Z,24.53
2017-07-16T17:22:38.260Z,23.37
2017-07-16T17:25:05.866Z,29.00
2017-07-16T17:27:33.360Z,33.27
2017-07-16T17:30:00.945Z,31.27
2017-07-16T17:32:28.536Z,38.17
2017-07-16T17:34:56.028Z,37.03
2017-07-16T17:37:23.710Z,35.17
2017-07-16T17:39:51.207Z,34.67
2017-07-16T17:42:19.461Z,34.03
2017-07-16T17:44:47.753Z,35.30
2017-07-16T17:47:15.249Z,33.77
2017-07-16T17:49:42.841Z,33.27
2017-07-16T17:52:10.357Z,32.40
2017-07-16T17:54:37.925Z,35.57
2017-07-16T17:57:05.580Z,35.40
2017-07-16T17:59:33.074Z,37.03
2017-07-16T18:02:00.567Z,40.03
2017-07-16T18:04:28.102Z,45.97
2017-07-16T18:06:55.588Z,42.10
2017-07-16T18:09:23.089Z,54.80
2017-07-16T18:11:50.629Z,51.27
2017-07-16T18:14:18.124Z,50.13
2017-07-16T18:16:45.650Z,47.83
2017-07-16T18:19:13.143Z,48.20
2017-07-16T18:21:41.442Z,47.47
2017-07-16T18:24:08.952Z,49.97
2017-07-16T18:26:36.839Z,48.10
2017-07-16T18:29:04.359Z,46.57
2017-07-16T18:31:31.861Z,47.73
2017-07-16T18:33:59.446Z,44.20
2017-07-16T18:36:26.965Z,50.37
2017-07-16T18:38:54.457Z,49.60
2017-07-16T18:41:21.944Z,48.27
2017-07-16T18:43:50.214Z,50.27
2017-07-16T18:46:17.770Z,45.17
2017-07-16T18:48:45.509Z,44.47
2017-07-16T18:51:13.056Z,39.13
2017-07-16T18:53:40.553Z,43.17
2017-07-16T18:56:08.247Z,47.80
2017-07-16T18:58:35.747Z,47.30
2017-07-16T19:01:03.332Z,53.73
2017-07-16T19:03:30.872Z,54.63
2017-07-16T19:05:58.426Z,49.63
2017-07-16T19:08:25.970Z,50.20
2017-07-16T19:10:53.463Z,47.43
2017-07-16T19:13:21.050Z,43.20
2017-07-16T19:15:48.597Z,49.17
2017-07-16T19:18:16.337Z,47.70
2017-07-16T19:20:44.866Z,40.13
2017-07-16T19:23:12.362Z,37.70
2017-07-16T19:25:39.894Z,44.53
2017-07-16T19:28:07.381Z,41.70
2017-07-16T19:30:34.985Z,38.97
2017-07-16T19:33:02.476Z,43.37
2017-07-16T19:35:29.970Z,41.80
2017-07-16T19:37:57.613Z,40.23
2017-07-16T19:40:25.106Z,37.83
2017-07-16T19:42:52.693Z,51.40
2017-07-16T19:45:20.441Z,36.13
2017-07-16T19:47:47.989Z,37.80
2017-07-16T19:50:15.528Z,29.53
2017-07-16T19:52:43.276Z,38.73
2017-07-16T19:55:10.770Z,37.77
2017-07-16T19:57:38.380Z,37.67
2017-07-16T20:00:05.908Z,33.73
2017-07-16T20:02:33.456Z,35.40
2017-07-16T20:05:00.950Z,39.80
2017-07-16T20:07:28.541Z,38.10
2017-07-16T20:09:56.082Z,36.73
2017-07-16T20:12:23.577Z,35.87
2017-07-16T20:14:51.113Z,41.83
2017-07-16T20:17:18.611Z,35.67
2017-07-16T20:19:46.105Z,35.63
2017-07-16T20:22:13.600Z,36.10
2017-07-16T20:24:41.142Z,35.13
2017-07-16T20:27:08.649Z,33.77
2017-07-16T20:29:37.040Z,30.23
2017-07-16T20:32:04.793Z,30.23
2017-07-16T20:34:32.285Z,33.93
2017-07-16T20:36:59.774Z,32.17
2017-07-16T20:39:27.280Z,30.40
2017-07-16T20:41:55.565Z,31.00
2017-07-16T20:44:23.117Z,28.77
2017-07-16T20:46:50.642Z,31.73
2017-07-16T20:49:18.133Z,29.33
2017-07-16T20:51:45.622Z,25.60
2017-07-16T20:54:13.185Z,36.43
2017-07-16T20:56:40.734Z,29.40
2017-07-16T20:59:08.229Z,23.33
2017-07-16T21:01:35.910Z,27.80
2017-07-16T21:04:03.405Z,26.43
2017-07-16T21:06:30.902Z,22.70
2017-07-16T21:08:58.548Z,24.87
2017-07-16T21:11:26.041Z,23.20
2017-07-16T21:13:53.537Z,25.53
2017-07-16T21:16:21.281Z,20.10
2017-07-16T21:18:48.821Z,29.20
2017-07-16T21:21:16.365Z,22.37
2017-07-16T21:23:43.904Z,25.90
2017-07-16T21:26:11.456Z,29.37
2017-07-16T21:28:38.945Z,23.73
2017-07-16T21:31:06.540Z,21.87
2017-07-16T21:33:34.087Z,20.60
2017-07-16T21:36:01.630Z,32.20
2017-07-16T21:38:29.218Z,21.30
2017-07-16T21:40:56.710Z,24.10
2017-07-16T21:43:24.301Z,20.17
2017-07-16T21:45:52.049Z,23.13
2017-07-16T21:48:19.593Z,23.70
2017-07-16T21:50:47.166Z,22.23
2017-07-16T21:53:14.790Z,18.30
2017-07-16T21:55:42.289Z,20.43
2017-07-16T21:58:09.786Z,25.23
2017-07-16T22:00:37.412Z,22.03
2017-07-16T22:03:04.958Z,19.60
2017-07-16T22:05:32.506Z,27.00
2017-07-16T22:08:00.049Z,23.07
2017-07-16T22:10:27.596Z,20.33
2017-07-16T22:12:55.132Z,17.50
2017-07-16T22:15:22.673Z,24.73
2017-07-16T22:17:50.199Z,18.60
2017-07-16T22:20:18.477Z,22.53
2017-07-16T22:22:45.968Z,22.00
2017-07-16T22:25:13.565Z,19.00
2017-07-16T22:27:41.053Z,19.53
2017-07-16T22:30:08.649Z,21.97
2017-07-16T22:32:36.137Z,20.07
2017-07-16T22:35:03.624Z,21.27
2017-07-16T22:37:32.001Z,24.00
2017-07-16T22:39:59.522Z,31.60
2017-07-16T22:42:27.017Z,20.23
2017-07-16T22:44:54.527Z,19.70
2017-07-16T22:47:22.045Z,23.53
2017-07-16T22:49:49.593Z,22.73
2017-07-16T22:52:17.134Z,19.87
2017-07-16T22:54:44.677Z,22.23
2017-07-16T22:57:12.186Z,20.00
2017-07-16T22:59:39.676Z,19.97
2017-07-16T23:02:07.373Z,18.70
2017-07-16T23:04:34.865Z,15.63
2017-07-16T23:07:02.397Z,23.67
2017-07-16T23:09:29.940Z,14.17
2017-07-16T23:11:57.488Z,15.70
2017-07-16T23:14:25.039Z,22.90
2017-07-16T23:16:52.561Z,25.27
2017-07-16T23:19:20.062Z,18.17
2017-07-16T23:21:47.552Z,16.43
2017-07-16T23:24:15.100Z,21.43
2017-07-16T23:26:42.647Z,22.03
2017-07-16T23:29:10.181Z,18.93
2017-07-16T23:31:37.711Z,14.87
2017-07-16T23:34:05.996Z,24.50
2017-07-16T23:36:33.532Z,19.83
2017-07-16T23:39:01.055Z,19.00
2017-07-16T23:41:28.553Z,21.23
2017-07-16T23:43:56.044Z,22.67
2017-07-16T23:46:23.790Z,20.63
2017-07-16T23:48:51.337Z,21.43
2017-07-16T23:51:18.878Z,20.00
2017-07-16T23:53:46.422Z,17.67
2017-07-16T23:56:13.969Z,18.97
2017-07-16T23:58:41.509Z,14.60
